createdAt,value
2019-06-26T00:00:08.129Z,26.36
2019-06-26T00:01:08.105Z,26.36
2019-06-26T00:02:08.091Z,26.38
2019-06-26T00:03:08.090Z,26.32
2019-06-26T00:04:08.092Z,26.35
2019-06-26T00:05:08.062Z,26.27
2019-06-26T00:06:08.075Z,26.29
2019-06-26T00:07:08.040Z,26.27
2019-06-26T00:08:08.026Z,26.32
2019-06-26T00:09:08.041Z,26.20
2019-06-26T00:10:08.014Z,26.20
2019-06-26T00:11:07.994Z,26.16
2019-06-26T00:12:07.984Z,26.17
2019-06-26T00:13:07.975Z,26.13
2019-06-26T00:14:07.967Z,26.12
2019-06-26T00:15:07.969Z,26.12
2019-06-26T00:16:07.958Z,26.13
2019-06-26T00:17:07.931Z,26.06
2019-06-26T00:18:07.923Z,26.01
2019-06-26T00:19:07.924Z,26.04
2019-06-26T00:20:07.920Z,26.00
2019-06-26T00:21:07.901Z,25.93
2019-06-26T00:22:07.879Z,25.98
2019-06-26T00:23:07.868Z,25.94
2019-06-26T00:24:07.999Z,25.98
2019-06-26T00:25:07.843Z,25.97
2019-06-26T00:26:07.850Z,26.01
2019-06-26T00:27:07.827Z,26.00
2019-06-26T00:28:07.809Z,25.98
2019-06-26T00:29:07.794Z,25.96
2019-06-26T00:30:07.782Z,25.93
2019-06-26T00:31:07.792Z,25.78
2019-06-26T00:32:07.765Z,25.89
2019-06-26T00:33:07.752Z,25.83
2019-06-26T00:34:07.738Z,25.79
2019-06-26T00:35:07.730Z,25.82
2019-06-26T00:36:07.740Z,25.82
2019-06-26T00:37:07.708Z,25.86
2019-06-26T00:38:07.719Z,25.89
2019-06-26T00:39:07.693Z,25.79
2019-06-26T00:40:07.676Z,25.89
2019-06-26T00:41:07.666Z,25.76
2019-06-26T00:42:07.663Z,25.81
2019-06-26T00:43:07.645Z,25.85
2019-06-26T00:44:07.631Z,25.78
2019-06-26T00:45:07.753Z,25.75
2019-06-26T00:46:07.607Z,25.79
2019-06-26T00:47:07.625Z,25.79
2019-06-26T00:48:07.588Z,25.79
2019-06-26T00:49:07.578Z,25.78
2019-06-26T00:50:07.562Z,25.82
2019-06-26T00:51:07.553Z,25.86
2019-06-26T00:52:07.541Z,25.93
2019-06-26T00:53:07.550Z,25.91
2019-06-26T00:54:07.523Z,25.97
2019-06-26T00:55:07.506Z,25.94
2019-06-26T00:56:07.513Z,25.94
2019-06-26T00:57:07.493Z,25.89
2019-06-26T00:58:07.514Z,25.90
2019-06-26T00:59:07.480Z,25.94
2019-06-26T01:00:07.467Z,25.94
2019-06-26T01:01:07.448Z,25.86
2019-06-26T01:02:07.439Z,25.93
2019-06-26T01:03:07.426Z,25.93
2019-06-26T01:04:07.438Z,25.82
2019-06-26T01:05:07.396Z,25.79
2019-06-26T01:06:07.389Z,25.85
2019-06-26T01:07:07.381Z,25.85
2019-06-26T01:08:07.367Z,25.89
2019-06-26T01:09:07.356Z,25.85
2019-06-26T01:10:07.365Z,25.78
2019-06-26T01:11:07.332Z,25.86
2019-06-26T01:12:07.320Z,25.72
2019-06-26T01:13:07.309Z,25.72
2019-06-26T01:14:07.315Z,25.69
2019-06-26T01:15:07.304Z,25.81
2019-06-26T01:16:07.280Z,25.75
2019-06-26T01:17:07.269Z,25.66
2019-06-26T01:18:07.267Z,25.69
2019-06-26T01:19:07.245Z,25.72
2019-06-26T01:20:07.264Z,25.67
2019-06-26T01:21:07.223Z,25.66
2019-06-26T01:22:07.218Z,25.63
2019-06-26T01:23:07.198Z,25.71
2019-06-26T01:24:07.216Z,25.66
2019-06-26T01:25:07.171Z,25.71
2019-06-26T01:26:07.170Z,25.66
2019-06-26T01:27:07.156Z,25.66
2019-06-26T01:28:07.150Z,25.72
2019-06-26T01:29:07.128Z,25.66
2019-06-26T01:30:07.142Z,25.69
2019-06-26T01:31:07.120Z,25.64
2019-06-26T01:32:07.114Z,25.79
2019-06-26T01:33:07.093Z,25.71
2019-06-26T01:34:07.081Z,25.69
2019-06-26T01:35:07.065Z,25.64
2019-06-26T01:36:07.076Z,25.67
2019-06-26T01:37:07.043Z,25.69
2019-06-26T01:38:07.030Z,25.63
2019-06-26T01:39:07.039Z,25.66
2019-06-26T01:40:07.021Z,25.69
2019-06-26T01:41:07.019Z,25.67
2019-06-26T01:42:06.986Z,25.67
2019-06-26T01:43:06.990Z,25.64
2019-06-26T01:44:15.009Z,25.67
2019-06-26T01:45:07.951Z,25.63
2019-06-26T01:46:06.947Z,25.66
2019-06-26T01:47:06.947Z,25.61
2019-06-26T01:48:06.928Z,25.60
2019-06-26T01:49:06.916Z,25.67
2019-06-26T01:50:06.896Z,25.66
2019-06-26T01:51:06.896Z,25.61
2019-06-26T01:52:06.907Z,25.63
2019-06-26T01:53:06.869Z,25.60
2019-06-26T01:54:06.851Z,25.48
2019-06-26T01:55:06.843Z,25.51
2019-06-26T01:56:06.836Z,25.51
2019-06-26T01:57:06.818Z,25.48
2019-06-26T01:58:06.823Z,25.49
2019-06-26T01:59:06.810Z,25.51
2019-06-26T02:00:06.792Z,25.46
2019-06-26T02:01:06.776Z,25.45
2019-06-26T02:02:06.776Z,25.41
2019-06-26T02:03:06.775Z,25.38
2019-06-26T02:04:06.755Z,25.45
2019-06-26T02:05:06.888Z,25.36
2019-06-26T02:06:06.720Z,25.41
2019-06-26T02:07:06.710Z,25.35
2019-06-26T02:08:06.703Z,25.34
2019-06-26T02:09:06.712Z,25.27
2019-06-26T02:10:06.697Z,25.24
2019-06-26T02:11:06.698Z,25.24
2019-06-26T02:12:06.695Z,25.27
2019-06-26T02:13:06.655Z,25.22
2019-06-26T02:14:06.634Z,25.27
2019-06-26T02:15:06.631Z,25.29
2019-06-26T02:16:06.611Z,25.17
2019-06-26T02:17:06.610Z,25.12
2019-06-26T02:18:06.603Z,25.07
2019-06-26T02:19:06.581Z,25.20
2019-06-26T02:20:06.617Z,25.05
2019-06-26T02:21:06.557Z,25.09
2019-06-26T02:22:06.553Z,25.02
2019-06-26T02:23:06.535Z,25.12
2019-06-26T02:24:06.552Z,25.07
2019-06-26T02:25:06.520Z,25.04
2019-06-26T02:26:06.520Z,25.02
2019-06-26T02:27:06.511Z,24.99
2019-06-26T02:28:06.487Z,25.02
2019-06-26T02:29:06.469Z,25.04
2019-06-26T02:30:06.459Z,24.98
2019-06-26T02:31:06.495Z,24.99
2019-06-26T02:32:06.438Z,24.94
2019-06-26T02:33:06.423Z,24.89
2019-06-26T02:34:06.417Z,24.87
2019-06-26T02:35:09.983Z,24.97
2019-06-26T02:36:06.392Z,24.89
2019-06-26T02:37:06.398Z,24.86
2019-06-26T02:38:06.373Z,24.79
2019-06-26T02:39:06.373Z,24.83
2019-06-26T02:40:06.351Z,24.86
2019-06-26T02:41:06.357Z,24.89
2019-06-26T02:42:06.344Z,24.83
2019-06-26T02:43:07.194Z,24.74
2019-06-26T02:44:06.312Z,24.79
2019-06-26T02:45:06.344Z,24.77
2019-06-26T02:46:06.299Z,24.77
2019-06-26T02:47:19.670Z,24.77
2019-06-26T02:48:07.266Z,24.74
2019-06-26T02:49:06.256Z,24.68
2019-06-26T02:50:06.243Z,24.66
2019-06-26T02:51:06.251Z,24.67
2019-06-26T02:52:06.223Z,24.64
2019-06-26T02:53:06.219Z,24.70
2019-06-26T02:54:06.201Z,24.63
2019-06-26T02:55:06.192Z,24.67
2019-06-26T02:56:06.197Z,24.52
2019-06-26T02:57:06.163Z,24.52
2019-06-26T02:58:06.153Z,24.51
2019-06-26T02:59:06.150Z,24.56
2019-06-26T03:00:06.140Z,24.55
2019-06-26T03:01:06.118Z,24.49
2019-06-26T03:02:06.109Z,24.51
2019-06-26T03:03:06.096Z,24.51
2019-06-26T03:04:06.090Z,24.37
2019-06-26T03:05:06.095Z,24.33
2019-06-26T03:06:06.072Z,24.41
2019-06-26T03:07:06.052Z,24.42
2019-06-26T03:08:06.058Z,24.41
2019-06-26T03:09:06.039Z,24.37
2019-06-26T03:10:06.021Z,24.36
2019-06-26T03:11:06.009Z,24.33
2019-06-26T03:12:06.013Z,24.29
2019-06-26T03:13:06.022Z,24.33
2019-06-26T03:14:05.982Z,24.27
2019-06-26T03:15:09.213Z,24.30
2019-06-26T03:16:05.994Z,24.19
2019-06-26T03:17:05.947Z,24.24
2019-06-26T03:18:05.936Z,24.23
2019-06-26T03:19:05.932Z,24.19
2019-06-26T03:20:05.911Z,24.19
2019-06-26T03:21:05.899Z,24.16
2019-06-26T03:22:05.894Z,24.11
2019-06-26T03:23:05.874Z,24.08
2019-06-26T03:24:05.923Z,24.12
2019-06-26T03:25:05.875Z,24.16
2019-06-26T03:26:05.849Z,24.18
2019-06-26T03:27:08.898Z,24.06
2019-06-26T03:28:05.822Z,24.02
2019-06-26T03:29:05.809Z,24.08
2019-06-26T03:30:05.838Z,24.09
2019-06-26T03:31:05.798Z,24.09
2019-06-26T03:32:05.774Z,24.09
2019-06-26T03:33:05.774Z,24.05
2019-06-26T03:34:05.752Z,24.08
2019-06-26T03:35:05.801Z,24.02
2019-06-26T03:36:05.764Z,24.00
2019-06-26T03:37:05.719Z,24.04
2019-06-26T03:38:05.709Z,24.02
2019-06-26T03:39:05.847Z,23.92
2019-06-26T03:40:05.695Z,23.96
2019-06-26T03:41:05.677Z,23.97
2019-06-26T03:42:05.721Z,23.90
2019-06-26T03:43:05.652Z,23.90
2019-06-26T03:44:05.650Z,23.89
2019-06-26T03:45:05.631Z,23.99
2019-06-26T03:46:05.667Z,23.93
2019-06-26T03:47:05.616Z,23.96
2019-06-26T03:48:05.607Z,23.92
2019-06-26T03:49:05.629Z,23.94
2019-06-26T03:50:05.578Z,23.99
2019-06-26T03:51:05.589Z,23.92
2019-06-26T03:52:05.562Z,23.93
2019-06-26T03:53:05.546Z,23.92
2019-06-26T03:54:05.556Z,23.99
2019-06-26T03:55:05.521Z,23.94
2019-06-26T03:56:05.508Z,23.99
2019-06-26T03:57:05.496Z,23.86
2019-06-26T03:58:05.486Z,23.93
2019-06-26T03:59:05.475Z,23.96
2019-06-26T04:00:05.480Z,23.97
2019-06-26T04:01:05.452Z,23.93
2019-06-26T04:02:05.494Z,23.94
2019-06-26T04:03:05.430Z,23.93
2019-06-26T04:04:05.419Z,23.87
2019-06-26T04:05:05.548Z,23.93
2019-06-26T04:06:05.401Z,23.97
2019-06-26T04:07:05.392Z,23.93
2019-06-26T04:08:05.410Z,23.90
2019-06-26T04:09:05.367Z,23.99
2019-06-26T04:10:05.433Z,24.04
2019-06-26T04:11:05.345Z,24.00
2019-06-26T04:12:05.337Z,24.02
2019-06-26T04:13:05.325Z,24.00
2019-06-26T04:14:05.344Z,23.97
2019-06-26T04:15:05.301Z,24.00
2019-06-26T04:16:05.289Z,24.04
2019-06-26T04:17:05.286Z,24.05
2019-06-26T04:18:05.271Z,24.11
2019-06-26T04:19:05.260Z,24.14
2019-06-26T04:20:05.280Z,24.21
2019-06-26T04:21:05.237Z,24.14
2019-06-26T04:22:05.229Z,24.29
2019-06-26T04:23:05.210Z,24.19
2019-06-26T04:24:05.205Z,24.16
2019-06-26T04:25:05.194Z,24.33
2019-06-26T04:26:05.197Z,24.30
2019-06-26T04:27:05.166Z,24.30
2019-06-26T04:28:06.444Z,24.36
2019-06-26T04:29:05.147Z,24.42
2019-06-26T04:30:05.176Z,24.37
2019-06-26T04:31:05.125Z,24.48
2019-06-26T04:32:05.123Z,24.48
2019-06-26T04:33:05.115Z,24.51
2019-06-26T04:34:05.099Z,24.53
2019-06-26T04:35:05.085Z,24.63
2019-06-26T04:36:05.093Z,24.66
2019-06-26T04:37:05.061Z,24.61
2019-06-26T04:38:05.046Z,24.68
2019-06-26T04:39:05.041Z,24.80
2019-06-26T04:40:05.032Z,24.71
2019-06-26T04:41:05.035Z,24.80
2019-06-26T04:42:05.015Z,24.80
2019-06-26T04:43:04.993Z,24.87
2019-06-26T04:44:04.992Z,24.89
2019-06-26T04:45:04.981Z,24.84
2019-06-26T04:46:04.975Z,24.86
2019-06-26T04:47:04.957Z,24.92
2019-06-26T04:48:07.182Z,24.93
2019-06-26T04:49:04.928Z,24.97
2019-06-26T04:50:04.925Z,25.01
2019-06-26T04:51:04.918Z,25.01
2019-06-26T04:52:04.936Z,25.05
2019-06-26T04:53:04.891Z,25.05
2019-06-26T04:54:04.883Z,25.08
2019-06-26T04:55:04.865Z,25.07
2019-06-26T04:56:04.865Z,25.16
2019-06-26T04:57:04.855Z,25.20
2019-06-26T04:58:04.852Z,25.20
2019-06-26T04:59:04.819Z,25.23
2019-06-26T05:00:04.814Z,25.27
2019-06-26T05:01:04.808Z,25.30
2019-06-26T05:02:04.791Z,25.30
2019-06-26T05:03:04.780Z,25.36
2019-06-26T05:04:04.874Z,25.38
2019-06-26T05:05:04.774Z,25.41
2019-06-26T05:06:04.749Z,25.49
2019-06-26T05:07:04.743Z,25.51
2019-06-26T05:08:04.732Z,25.57
2019-06-26T05:09:04.722Z,25.57
2019-06-26T05:10:04.751Z,25.60
2019-06-26T05:11:04.693Z,25.61
2019-06-26T05:12:04.683Z,25.67
2019-06-26T05:13:04.678Z,25.74
2019-06-26T05:14:04.660Z,25.78
2019-06-26T05:15:04.657Z,25.78
2019-06-26T05:16:14.202Z,25.66
2019-06-26T05:17:05.635Z,25.72
2019-06-26T05:18:04.625Z,25.82
2019-06-26T05:19:04.611Z,25.96
2019-06-26T05:20:04.615Z,25.97
2019-06-26T05:21:04.588Z,26.01
2019-06-26T05:22:04.582Z,26.01
2019-06-26T05:23:04.573Z,26.16
2019-06-26T05:24:04.557Z,26.17
2019-06-26T05:25:04.557Z,26.16
2019-06-26T05:26:04.546Z,26.20
2019-06-26T05:27:04.522Z,26.20
2019-06-26T05:28:08.121Z,26.28
2019-06-26T05:29:04.504Z,26.28
2019-06-26T05:30:04.575Z,26.35
2019-06-26T05:31:04.481Z,26.51
2019-06-26T05:32:04.488Z,26.44
2019-06-26T05:33:04.465Z,26.51
2019-06-26T05:34:04.453Z,26.51
2019-06-26T05:35:04.439Z,26.53
2019-06-26T05:36:04.440Z,26.66
2019-06-26T05:37:04.418Z,26.71
2019-06-26T05:38:04.408Z,26.73
2019-06-26T05:39:04.394Z,26.81
2019-06-26T05:40:04.412Z,26.81
2019-06-26T05:41:04.383Z,26.76
2019-06-26T05:42:06.643Z,26.75
2019-06-26T05:43:04.379Z,26.69
2019-06-26T05:44:04.344Z,26.68
2019-06-26T05:45:04.357Z,26.75
2019-06-26T05:46:04.342Z,26.76
2019-06-26T05:47:07.067Z,26.76
2019-06-26T05:48:04.308Z,26.72
2019-06-26T05:49:04.302Z,26.71
2019-06-26T05:50:04.280Z,26.71
2019-06-26T05:51:04.309Z,26.78
2019-06-26T05:52:04.345Z,26.81
2019-06-26T05:53:04.252Z,26.81
2019-06-26T05:54:04.247Z,26.81
2019-06-26T05:55:04.238Z,26.86
2019-06-26T05:56:04.221Z,26.91
2019-06-26T05:57:04.219Z,26.84
2019-06-26T05:58:04.229Z,26.86
2019-06-26T05:59:04.192Z,26.84
2019-06-26T06:00:04.182Z,26.87
2019-06-26T06:01:04.183Z,26.87
2019-06-26T06:02:04.186Z,26.93
2019-06-26T06:03:04.195Z,26.93
2019-06-26T06:04:04.136Z,26.98
2019-06-26T06:05:04.124Z,27.03
2019-06-26T06:06:04.114Z,27.03
2019-06-26T06:07:04.112Z,27.09
2019-06-26T06:08:04.109Z,26.98
2019-06-26T06:09:04.090Z,27.06
2019-06-26T06:10:04.079Z,27.06
2019-06-26T06:11:04.069Z,27.20
2019-06-26T06:12:04.056Z,27.20
2019-06-26T06:13:04.054Z,27.25
2019-06-26T06:14:04.037Z,27.23
2019-06-26T06:15:04.021Z,27.12
2019-06-26T06:16:06.329Z,27.16
2019-06-26T06:17:04.003Z,27.24
2019-06-26T06:18:04.022Z,27.25
2019-06-26T06:19:03.984Z,27.21
2019-06-26T06:20:03.978Z,27.40
2019-06-26T06:21:03.958Z,27.24
2019-06-26T06:22:03.959Z,27.25
2019-06-26T06:23:03.946Z,27.33
2019-06-26T06:24:03.952Z,27.23
2019-06-26T06:25:03.920Z,27.34
2019-06-26T06:26:03.910Z,27.39
2019-06-26T06:27:03.906Z,27.53
2019-06-26T06:28:03.895Z,27.58
2019-06-26T06:29:03.887Z,27.71
2019-06-26T06:30:03.920Z,27.71
2019-06-26T06:31:03.861Z,27.72
2019-06-26T06:32:03.845Z,27.81
2019-06-26T06:33:03.832Z,27.78
2019-06-26T06:34:03.824Z,27.74
2019-06-26T06:35:03.919Z,27.80
2019-06-26T06:36:03.818Z,27.81
2019-06-26T06:37:03.797Z,27.81
2019-06-26T06:38:03.804Z,27.77
2019-06-26T06:39:03.783Z,27.68
2019-06-26T06:40:03.772Z,27.74
2019-06-26T06:41:03.777Z,27.68
2019-06-26T06:42:03.747Z,27.61
2019-06-26T06:43:03.741Z,27.66
2019-06-26T06:44:03.756Z,27.72
2019-06-26T06:45:03.716Z,27.83
2019-06-26T06:46:03.717Z,27.99
2019-06-26T06:47:05.621Z,27.90
2019-06-26T06:48:03.689Z,27.95
2019-06-26T06:49:03.674Z,27.81
2019-06-26T06:50:03.775Z,27.88
2019-06-26T06:51:03.689Z,27.93
2019-06-26T06:52:03.664Z,27.91
2019-06-26T06:53:03.634Z,27.90
2019-06-26T06:54:03.623Z,27.96
2019-06-26T06:55:03.612Z,27.98
2019-06-26T06:56:03.624Z,28.05
2019-06-26T06:57:03.618Z,28.05
2019-06-26T06:58:03.582Z,28.11
2019-06-26T06:59:03.575Z,28.18
2019-06-26T07:00:03.572Z,28.40
2019-06-26T07:01:03.556Z,28.40
2019-06-26T07:02:03.554Z,28.43
2019-06-26T07:03:03.552Z,28.40
2019-06-26T07:04:03.530Z,28.33
2019-06-26T07:05:03.516Z,28.35
2019-06-26T07:06:03.509Z,28.35
2019-06-26T07:07:03.499Z,28.35
2019-06-26T07:08:03.489Z,28.38
2019-06-26T07:09:03.490Z,28.48
2019-06-26T07:10:03.527Z,28.48
2019-06-26T07:11:03.461Z,28.50
2019-06-26T07:12:03.441Z,28.50
2019-06-26T07:13:03.434Z,28.40
2019-06-26T07:14:03.436Z,28.40
2019-06-26T07:15:03.418Z,28.51
2019-06-26T07:16:03.411Z,28.55
2019-06-26T07:17:16.080Z,28.64
2019-06-26T07:18:04.393Z,28.83
2019-06-26T07:19:03.380Z,29.07
2019-06-26T07:20:03.386Z,29.15
2019-06-26T07:21:03.365Z,29.37
2019-06-26T07:22:06.975Z,29.35
2019-06-26T07:23:03.352Z,29.44
2019-06-26T07:24:03.378Z,29.57
2019-06-26T07:25:03.323Z,29.69
2019-06-26T07:26:03.305Z,29.76
2019-06-26T07:27:03.304Z,29.67
2019-06-26T07:28:03.363Z,29.58
2019-06-26T07:29:03.286Z,29.41
2019-06-26T07:30:03.321Z,29.45
2019-06-26T07:31:03.267Z,29.60
2019-06-26T07:32:03.265Z,29.73
2019-06-26T07:33:03.240Z,29.79
2019-06-26T07:34:03.237Z,29.89
2019-06-26T07:35:03.234Z,29.84
2019-06-26T07:36:03.229Z,29.79
2019-06-26T07:37:03.204Z,29.74
2019-06-26T07:38:03.188Z,29.60
2019-06-26T07:39:03.189Z,29.44
2019-06-26T07:40:03.225Z,29.35
2019-06-26T07:41:03.407Z,29.44
2019-06-26T07:42:03.172Z,29.58
2019-06-26T07:43:03.140Z,29.64
2019-06-26T07:44:03.137Z,29.85
2019-06-26T07:45:03.128Z,30.04
2019-06-26T07:46:03.125Z,30.23
2019-06-26T07:47:03.111Z,30.34
2019-06-26T07:48:03.110Z,30.49
2019-06-26T07:49:03.106Z,30.49
2019-06-26T07:50:03.139Z,30.61
2019-06-26T07:51:03.084Z,30.76
2019-06-26T07:52:03.069Z,30.75
2019-06-26T07:53:03.050Z,30.83
2019-06-26T07:54:03.049Z,30.94
2019-06-26T07:55:03.051Z,31.00
2019-06-26T07:56:03.021Z,31.09
2019-06-26T07:57:03.011Z,31.10
2019-06-26T07:58:03.018Z,31.18
2019-06-26T07:59:02.992Z,31.20
2019-06-26T08:00:02.992Z,31.35
2019-06-26T08:01:03.020Z,31.40
2019-06-26T08:02:02.967Z,31.54
2019-06-26T08:03:04.516Z,31.69
2019-06-26T08:04:02.944Z,31.32
2019-06-26T08:05:02.942Z,31.20
2019-06-26T08:06:02.934Z,30.82
2019-06-26T08:07:02.955Z,30.63
2019-06-26T08:08:02.908Z,30.53
2019-06-26T08:09:02.905Z,30.53
2019-06-26T08:10:02.892Z,30.46
2019-06-26T08:11:06.177Z,30.61
2019-06-26T08:12:02.868Z,30.72
2019-06-26T08:13:02.869Z,30.81
2019-06-26T08:14:02.857Z,30.63
2019-06-26T08:15:02.839Z,30.45
2019-06-26T08:16:02.831Z,30.51
2019-06-26T08:17:02.824Z,30.68
2019-06-26T08:18:02.821Z,30.91
2019-06-26T08:19:02.809Z,30.98
2019-06-26T08:20:02.792Z,31.05
2019-06-26T08:21:12.331Z,31.09
2019-06-26T08:22:03.776Z,31.04
2019-06-26T08:23:02.810Z,30.96
2019-06-26T08:24:02.756Z,30.94
2019-06-26T08:25:02.745Z,31.05
2019-06-26T08:26:02.742Z,31.01
2019-06-26T08:27:02.735Z,31.13
2019-06-26T08:28:02.749Z,31.25
2019-06-26T08:29:02.706Z,31.37
2019-06-26T08:30:02.708Z,31.37
2019-06-26T08:31:02.697Z,31.35
2019-06-26T08:32:02.688Z,31.50
2019-06-26T08:33:02.673Z,31.52
2019-06-26T08:34:02.677Z,31.75
2019-06-26T08:35:02.757Z,31.79
2019-06-26T08:36:02.649Z,31.95
2019-06-26T08:37:02.640Z,31.95
2019-06-26T08:38:11.094Z,32.06
2019-06-26T08:39:03.627Z,32.22
2019-06-26T08:40:02.609Z,32.34
2019-06-26T08:41:02.598Z,32.41
2019-06-26T08:42:02.603Z,32.28
2019-06-26T08:43:02.586Z,32.05
2019-06-26T08:44:02.595Z,31.94
2019-06-26T08:45:02.574Z,31.95
2019-06-26T08:46:02.554Z,31.90
2019-06-26T08:47:02.547Z,31.85
2019-06-26T08:48:16.710Z,31.82
2019-06-26T08:49:03.560Z,31.52
2019-06-26T08:50:02.932Z,31.37
2019-06-26T08:51:02.520Z,31.15
2019-06-26T08:52:02.644Z,31.23
2019-06-26T08:53:02.589Z,31.50
2019-06-26T08:54:04.774Z,31.72
2019-06-26T08:55:02.483Z,31.98
2019-06-26T08:56:02.478Z,32.17
2019-06-26T08:57:02.456Z,32.39
2019-06-26T08:58:02.447Z,32.53
2019-06-26T08:59:02.440Z,32.73
2019-06-26T09:00:02.458Z,32.85
2019-06-26T09:01:02.428Z,32.78
2019-06-26T09:02:02.417Z,32.68
2019-06-26T09:03:02.404Z,32.49
2019-06-26T09:04:02.391Z,32.44
2019-06-26T09:05:02.392Z,32.40
2019-06-26T09:06:02.387Z,32.32
2019-06-26T09:07:02.393Z,32.29
2019-06-26T09:08:02.407Z,32.28
2019-06-26T09:09:02.415Z,32.35
2019-06-26T09:10:02.352Z,32.35
2019-06-26T09:11:02.338Z,32.41
2019-06-26T09:12:02.327Z,32.35
2019-06-26T09:13:02.339Z,31.97
2019-06-26T09:14:02.307Z,31.91
2019-06-26T09:15:02.298Z,31.92
2019-06-26T09:16:02.292Z,32.12
2019-06-26T09:17:02.301Z,32.06
2019-06-26T09:18:02.286Z,31.95
2019-06-26T09:19:02.310Z,31.98
2019-06-26T09:20:02.275Z,32.09
2019-06-26T09:21:02.266Z,32.35
2019-06-26T09:22:02.245Z,32.41
2019-06-26T09:23:02.406Z,32.56
2019-06-26T09:24:02.233Z,32.41
2019-06-26T09:25:19.822Z,32.41
2019-06-26T09:26:03.229Z,32.56
2019-06-26T09:27:02.197Z,32.46
2019-06-26T09:28:02.220Z,32.47
2019-06-26T09:29:02.188Z,32.54
2019-06-26T09:30:02.177Z,32.72
2019-06-26T09:31:02.189Z,32.98
2019-06-26T09:32:02.169Z,33.21
2019-06-26T09:33:02.154Z,33.34
2019-06-26T09:34:02.153Z,33.50
2019-06-26T09:35:02.149Z,33.60
2019-06-26T09:36:02.185Z,33.60
2019-06-26T09:37:02.118Z,33.49
2019-06-26T09:38:02.116Z,33.44
2019-06-26T09:39:02.126Z,33.50
2019-06-26T09:40:02.098Z,33.15
2019-06-26T09:41:02.203Z,32.95
2019-06-26T09:42:02.076Z,32.65
2019-06-26T09:43:02.078Z,32.62
2019-06-26T09:44:02.067Z,32.51
2019-06-26T09:45:02.145Z,32.66
2019-06-26T09:46:02.075Z,32.84
2019-06-26T09:47:02.039Z,33.12
2019-06-26T09:48:02.037Z,33.21
2019-06-26T09:49:02.019Z,33.40
2019-06-26T09:50:02.115Z,33.35
2019-06-26T09:51:02.031Z,33.20
2019-06-26T09:52:02.012Z,33.17
2019-06-26T09:53:05.209Z,33.28
2019-06-26T09:54:01.984Z,33.40
2019-06-26T09:55:02.082Z,33.40
2019-06-26T09:56:01.997Z,33.37
2019-06-26T09:57:01.963Z,33.43
2019-06-26T09:58:01.959Z,33.50
2019-06-26T09:59:01.935Z,33.50
2019-06-26T10:00:01.996Z,33.52
2019-06-26T10:01:01.926Z,33.62
2019-06-26T10:02:01.919Z,33.65
2019-06-26T10:03:01.999Z,33.72
2019-06-26T10:04:01.904Z,33.92
2019-06-26T10:05:01.887Z,34.05
2019-06-26T10:06:02.002Z,34.14
2019-06-26T10:07:01.876Z,34.16
2019-06-26T10:08:01.878Z,34.49
2019-06-26T10:09:01.864Z,34.50
2019-06-26T10:10:01.848Z,34.56
2019-06-26T10:11:01.907Z,34.34
2019-06-26T10:12:01.834Z,34.26
2019-06-26T10:13:01.848Z,33.99
2019-06-26T10:14:01.817Z,33.81
2019-06-26T10:15:01.892Z,33.71
2019-06-26T10:16:01.812Z,33.81
2019-06-26T10:17:01.801Z,33.68
2019-06-26T10:18:01.793Z,33.70
2019-06-26T10:19:10.132Z,33.65
2019-06-26T10:20:02.771Z,33.75
2019-06-26T10:21:01.919Z,33.99
2019-06-26T10:22:01.767Z,33.94
2019-06-26T10:23:01.776Z,33.87
2019-06-26T10:24:01.755Z,33.74
2019-06-26T10:25:01.860Z,33.74
2019-06-26T10:26:01.764Z,33.84
2019-06-26T10:27:01.721Z,34.09
2019-06-26T10:28:02.501Z,34.28
2019-06-26T10:29:01.703Z,34.49
2019-06-26T10:30:01.712Z,34.53
2019-06-26T10:31:01.694Z,34.78
2019-06-26T10:32:01.735Z,34.83
2019-06-26T10:33:01.674Z,34.91
2019-06-26T10:34:01.721Z,34.90
2019-06-26T10:35:01.660Z,34.83
2019-06-26T10:36:01.659Z,34.84
2019-06-26T10:37:01.660Z,35.06
2019-06-26T10:38:01.661Z,35.18
2019-06-26T10:39:01.651Z,35.31
2019-06-26T10:40:01.642Z,35.34
2019-06-26T10:41:01.615Z,35.25
2019-06-26T10:42:01.616Z,35.32
2019-06-26T10:43:01.599Z,35.39
2019-06-26T10:44:01.598Z,35.55
2019-06-26T10:45:01.644Z,35.61
2019-06-26T10:46:01.598Z,35.40
2019-06-26T10:47:01.574Z,35.27
2019-06-26T10:48:01.566Z,35.10
2019-06-26T10:49:01.559Z,35.25
2019-06-26T10:50:01.560Z,35.40
2019-06-26T10:51:01.540Z,35.44
2019-06-26T10:52:01.550Z,35.56
2019-06-26T10:53:01.562Z,35.28
2019-06-26T10:54:01.527Z,35.07
2019-06-26T10:55:01.516Z,34.94
2019-06-26T10:56:01.514Z,34.98
2019-06-26T10:57:01.508Z,35.07
2019-06-26T10:58:01.501Z,35.15
2019-06-26T10:59:01.531Z,34.81
2019-06-26T11:00:01.512Z,34.30
2019-06-26T11:01:01.480Z,34.16
2019-06-26T11:02:01.458Z,34.12
2019-06-26T11:03:01.468Z,34.06
2019-06-26T11:04:01.579Z,34.16
2019-06-26T11:05:01.438Z,34.42
2019-06-26T11:06:01.483Z,34.60
2019-06-26T11:07:01.439Z,34.69
2019-06-26T11:08:01.415Z,34.69
2019-06-26T11:09:01.409Z,34.84
2019-06-26T11:10:01.473Z,34.94
2019-06-26T11:11:01.396Z,35.02
2019-06-26T11:12:01.419Z,35.20
2019-06-26T11:13:01.379Z,35.29
2019-06-26T11:14:01.368Z,35.42
2019-06-26T11:15:01.470Z,35.36
2019-06-26T11:16:01.358Z,35.47
2019-06-26T11:17:01.350Z,35.62
2019-06-26T11:18:01.350Z,35.76
2019-06-26T11:19:01.340Z,36.08
2019-06-26T11:20:01.357Z,36.11
2019-06-26T11:21:01.322Z,36.08
2019-06-26T11:22:01.314Z,35.95
2019-06-26T11:23:01.375Z,35.78
2019-06-26T11:24:01.296Z,35.64
2019-06-26T11:25:01.289Z,35.55
2019-06-26T11:26:01.286Z,35.28
2019-06-26T11:27:01.280Z,35.06
2019-06-26T11:28:01.267Z,35.06
2019-06-26T11:29:01.266Z,35.09
2019-06-26T11:30:01.272Z,35.03
2019-06-26T11:31:01.250Z,34.71
2019-06-26T11:32:01.253Z,34.69
2019-06-26T11:33:01.275Z,34.90
2019-06-26T11:34:01.214Z,35.00
2019-06-26T11:35:01.209Z,35.06
2019-06-26T11:36:01.204Z,35.09
2019-06-26T11:37:04.114Z,35.06
2019-06-26T11:38:01.185Z,34.87
2019-06-26T11:39:01.193Z,34.90
2019-06-26T11:40:01.170Z,34.84
2019-06-26T11:41:02.064Z,35.09
2019-06-26T11:42:01.154Z,35.29
2019-06-26T11:43:01.155Z,35.27
2019-06-26T11:44:01.162Z,35.31
2019-06-26T11:45:01.159Z,35.47
2019-06-26T11:46:01.152Z,35.59
2019-06-26T11:47:01.122Z,35.81
2019-06-26T11:48:01.121Z,35.69
2019-06-26T11:49:01.111Z,35.69
2019-06-26T11:50:01.091Z,35.78
2019-06-26T11:51:01.084Z,35.69
2019-06-26T11:52:01.094Z,35.66
2019-06-26T11:53:01.075Z,35.66
2019-06-26T11:54:01.068Z,35.59
2019-06-26T11:55:03.037Z,35.59
2019-06-26T11:56:01.047Z,35.58
2019-06-26T11:57:01.060Z,35.32
2019-06-26T11:58:01.029Z,35.27
2019-06-26T11:59:01.029Z,35.25
2019-06-26T12:00:01.169Z,35.28
2019-06-26T12:01:01.027Z,35.49
2019-06-26T12:02:01.023Z,35.58
2019-06-26T12:03:01.074Z,35.61
2019-06-26T12:04:00.981Z,35.40
2019-06-26T12:05:00.984Z,35.44
2019-06-26T12:06:15.266Z,35.56
2019-06-26T12:07:02.022Z,35.59
2019-06-26T12:08:00.976Z,35.66
2019-06-26T12:09:00.941Z,35.74
2019-06-26T12:10:01.065Z,35.73
2019-06-26T12:11:00.937Z,35.81
2019-06-26T12:12:00.939Z,35.85
2019-06-26T12:13:04.022Z,35.73
2019-06-26T12:14:00.909Z,35.77
2019-06-26T12:15:00.905Z,35.89
2019-06-26T12:16:00.898Z,35.84
2019-06-26T12:17:00.889Z,35.87
2019-06-26T12:18:00.904Z,35.91
2019-06-26T12:19:00.864Z,35.83
2019-06-26T12:20:17.306Z,35.92
2019-06-26T12:21:01.855Z,35.85
2019-06-26T12:22:00.849Z,35.71
2019-06-26T12:23:00.845Z,35.37
2019-06-26T12:24:00.836Z,35.10
2019-06-26T12:25:00.949Z,34.91
2019-06-26T12:26:00.819Z,34.88
2019-06-26T12:27:00.796Z,34.99
2019-06-26T12:28:00.794Z,35.00
2019-06-26T12:29:00.796Z,34.98
2019-06-26T12:30:00.773Z,35.06
2019-06-26T12:31:00.767Z,35.09
2019-06-26T12:32:00.764Z,35.28
2019-06-26T12:33:03.432Z,35.32
2019-06-26T12:34:00.764Z,35.34
2019-06-26T12:35:00.742Z,35.40
2019-06-26T12:36:00.725Z,35.40
2019-06-26T12:37:00.725Z,35.50
2019-06-26T12:38:00.717Z,35.59
2019-06-26T12:39:00.702Z,35.73
2019-06-26T12:40:00.981Z,35.77
2019-06-26T12:41:00.691Z,35.73
2019-06-26T12:42:00.682Z,35.83
2019-06-26T12:43:00.665Z,35.85
2019-06-26T12:44:00.695Z,35.89
2019-06-26T12:45:00.666Z,35.99
2019-06-26T12:46:00.665Z,35.84
2019-06-26T12:47:00.639Z,35.52
2019-06-26T12:48:00.633Z,35.40
2019-06-26T12:49:00.619Z,35.59
2019-06-26T12:50:00.610Z,35.65
2019-06-26T12:51:00.621Z,35.39
2019-06-26T12:52:00.602Z,35.59